sensor_id;sensor_type;location;lat;lon;timestamp;pressure;altitude;pressure_sealevel;temperature;humidity
20710;BME280;10516;51.518;9.864;2023-06-19T00:01:17;98393.00;;;22.56;56.31
20710;BME280;10516;51.518;9.864;2023-06-19T00:03:42;98402.09;;;22.60;56.58
20710;BME280;10516;51.518;9.864;2023-06-19T00:06:08;98397.69;;;22.68;56.69
20710;BME280;10516;51.518;9.864;2023-06-19T00:08:33;98392.94;;;22.65;56.13
20710;BME280;10516;51.518;9.864;2023-06-19T00:10:59;98393.38;;;22.67;56.19
20710;BME280;10516;51.518;9.864;2023-06-19T00:13:24;98396.50;;;22.57;56.46
20710;BME280;10516;51.518;9.864;2023-06-19T00:15:50;98376.09;;;22.51;56.21
20710;BME280;10516;51.518;9.864;2023-06-19T00:18:15;98395.94;;;22.51;56.56
20710;BME280;10516;51.518;9.864;2023-06-19T00:20:43;98382.09;;;22.44;56.54
20710;BME280;10516;51.518;9.864;2023-06-19T00:23:11;98382.34;;;22.51;56.26
20710;BME280;10516;51.518;9.864;2023-06-19T00:25:40;98368.59;;;22.48;56.02
20710;BME280;10516;51.518;9.864;2023-06-19T00:28:05;98368.25;;;22.37;56.20
20710;BME280;10516;51.518;9.864;2023-06-19T00:30:38;98375.84;;;22.44;56.08
20710;BME280;10516;51.518;9.864;2023-06-19T00:33:04;98372.00;;;22.45;56.06
20710;BME280;10516;51.518;9.864;2023-06-19T00:35:30;98365.66;;;22.41;56.24
20710;BME280;10516;51.518;9.864;2023-06-19T00:37:56;98363.50;;;22.34;56.35
20710;BME280;10516;51.518;9.864;2023-06-19T00:40:26;98347.75;;;22.39;56.30
20710;BME280;10516;51.518;9.864;2023-06-19T00:42:52;98350.91;;;22.29;56.33
20710;BME280;10516;51.518;9.864;2023-06-19T00:45:18;98353.03;;;22.24;56.50
20710;BME280;10516;51.518;9.864;2023-06-19T00:47:44;98358.59;;;22.27;56.68
20710;BME280;10516;51.518;9.864;2023-06-19T00:50:10;98368.88;;;22.22;56.80
20710;BME280;10516;51.518;9.864;2023-06-19T00:52:36;98360.41;;;22.23;56.39
20710;BME280;10516;51.518;9.864;2023-06-19T00:55:02;98352.66;;;22.13;56.47
20710;BME280;10516;51.518;9.864;2023-06-19T00:57:30;98357.75;;;22.15;56.49
20710;BME280;10516;51.518;9.864;2023-06-19T00:59:56;98339.75;;;22.10;56.32
20710;BME280;10516;51.518;9.864;2023-06-19T01:02:22;98354.13;;;22.11;56.29
20710;BME280;10516;51.518;9.864;2023-06-19T01:04:50;98338.50;;;22.08;55.93
20710;BME280;10516;51.518;9.864;2023-06-19T01:10:12;98350.38;;;22.03;56.15
20710;BME280;10516;51.518;9.864;2023-06-19T01:12:42;98355.34;;;22.01;56.23
20710;BME280;10516;51.518;9.864;2023-06-19T01:15:14;98353.50;;;21.93;56.34
20710;BME280;10516;51.518;9.864;2023-06-19T01:17:40;98352.28;;;21.91;56.50
20710;BME280;10516;51.518;9.864;2023-06-19T01:20:06;98367.53;;;21.95;56.25
20710;BME280;10516;51.518;9.864;2023-06-19T01:22:36;98366.16;;;21.89;56.49
20710;BME280;10516;51.518;9.864;2023-06-19T01:25:02;98354.50;;;21.89;56.44
20710;BME280;10516;51.518;9.864;2023-06-19T01:27:28;98361.00;;;21.96;56.49
20710;BME280;10516;51.518;9.864;2023-06-19T01:29:58;98351.94;;;22.04;56.05
20710;BME280;10516;51.518;9.864;2023-06-19T01:32:33;98351.28;;;22.07;55.91
20710;BME280;10516;51.518;9.864;2023-06-19T01:35:02;98337.66;;;21.95;56.29
20710;BME280;10516;51.518;9.864;2023-06-19T01:37:29;98328.94;;;21.90;56.77
20710;BME280;10516;51.518;9.864;2023-06-19T01:39:59;98346.03;;;21.90;56.85
20710;BME280;10516;51.518;9.864;2023-06-19T01:42:26;98359.38;;;21.95;57.42
20710;BME280;10516;51.518;9.864;2023-06-19T01:44:52;98352.28;;;21.91;57.66
20710;BME280;10516;51.518;9.864;2023-06-19T01:47:18;98345.28;;;21.81;58.11
20710;BME280;10516;51.518;9.864;2023-06-19T01:49:48;98347.09;;;21.77;58.41
20710;BME280;10516;51.518;9.864;2023-06-19T01:52:14;98356.44;;;21.88;57.98
20710;BME280;10516;51.518;9.864;2023-06-19T01:54:40;98356.94;;;21.82;57.99
20710;BME280;10516;51.518;9.864;2023-06-19T01:57:06;98357.72;;;21.82;58.27
20710;BME280;10516;51.518;9.864;2023-06-19T01:59:31;98357.59;;;21.79;58.28
20710;BME280;10516;51.518;9.864;2023-06-19T02:01:57;98347.75;;;21.53;58.94
20710;BME280;10516;51.518;9.864;2023-06-19T02:04:22;98351.44;;;21.08;61.80
20710;BME280;10516;51.518;9.864;2023-06-19T02:06:47;98354.81;;;21.05;61.24
20710;BME280;10516;51.518;9.864;2023-06-19T02:09:13;98338.56;;;21.67;59.15
20710;BME280;10516;51.518;9.864;2023-06-19T02:11:38;98342.75;;;21.76;58.90
20710;BME280;10516;51.518;9.864;2023-06-19T02:14:03;98339.69;;;21.78;58.77
20710;BME280;10516;51.518;9.864;2023-06-19T02:16:29;98328.25;;;21.72;59.07
20710;BME280;10516;51.518;9.864;2023-06-19T02:18:55;98331.78;;;21.73;58.95
20710;BME280;10516;51.518;9.864;2023-06-19T02:21:21;98326.34;;;21.73;59.36
20710;BME280;10516;51.518;9.864;2023-06-19T02:23:47;98317.13;;;21.65;59.39
20710;BME280;10516;51.518;9.864;2023-06-19T02:26:12;98327.00;;;21.70;59.42
20710;BME280;10516;51.518;9.864;2023-06-19T02:28:37;98320.38;;;21.58;59.62
20710;BME280;10516;51.518;9.864;2023-06-19T02:31:03;98325.34;;;21.56;59.99
20710;BME280;10516;51.518;9.864;2023-06-19T02:33:28;98322.09;;;21.63;59.91
20710;BME280;10516;51.518;9.864;2023-06-19T02:35:54;98309.41;;;21.55;60.53
20710;BME280;10516;51.518;9.864;2023-06-19T02:38:24;98310.97;;;21.56;60.67
20710;BME280;10516;51.518;9.864;2023-06-19T02:40:50;98295.22;;;21.49;60.72
20710;BME280;10516;51.518;9.864;2023-06-19T02:43:15;98297.84;;;21.58;60.58
20710;BME280;10516;51.518;9.864;2023-06-19T02:45:41;98298.53;;;21.55;60.68
20710;BME280;10516;51.518;9.864;2023-06-19T02:48:06;98306.34;;;21.56;60.40
20710;BME280;10516;51.518;9.864;2023-06-19T02:50:32;98313.91;;;21.51;60.79
20710;BME280;10516;51.518;9.864;2023-06-19T02:52:57;98301.44;;;21.50;60.69
20710;BME280;10516;51.518;9.864;2023-06-19T02:55:22;98305.69;;;21.39;60.91
20710;BME280;10516;51.518;9.864;2023-06-19T02:57:48;98315.56;;;21.43;61.19
20710;BME280;10516;51.518;9.864;2023-06-19T03:00:13;98305.03;;;21.42;60.93
20710;BME280;10516;51.518;9.864;2023-06-19T03:02:39;98321.34;;;21.42;60.80
20710;BME280;10516;51.518;9.864;2023-06-19T03:05:08;98311.13;;;21.39;60.46
20710;BME280;10516;51.518;9.864;2023-06-19T03:07:33;98321.00;;;21.43;59.94
20710;BME280;10516;51.518;9.864;2023-06-19T03:09:59;98313.72;;;21.35;59.69
20710;BME280;10516;51.518;9.864;2023-06-19T03:12:24;98318.34;;;21.35;59.40
20710;BME280;10516;51.518;9.864;2023-06-19T03:14:49;98319.72;;;21.41;59.23
20710;BME280;10516;51.518;9.864;2023-06-19T03:17:15;98327.88;;;21.41;59.05
20710;BME280;10516;51.518;9.864;2023-06-19T03:19:40;98319.78;;;21.32;59.17
20710;BME280;10516;51.518;9.864;2023-06-19T03:22:05;98329.28;;;21.47;58.80
20710;BME280;10516;51.518;9.864;2023-06-19T03:24:31;98335.84;;;21.46;58.74
20710;BME280;10516;51.518;9.864;2023-06-19T03:26:56;98321.88;;;21.35;58.10
20710;BME280;10516;51.518;9.864;2023-06-19T03:29:22;98322.66;;;21.36;58.45
20710;BME280;10516;51.518;9.864;2023-06-19T03:31:47;98316.56;;;21.39;58.48
20710;BME280;10516;51.518;9.864;2023-06-19T03:34:12;98323.38;;;21.45;58.27
20710;BME280;10516;51.518;9.864;2023-06-19T03:36:38;98323.38;;;21.45;58.38
20710;BME280;10516;51.518;9.864;2023-06-19T03:39:04;98314.31;;;21.41;57.96
20710;BME280;10516;51.518;9.864;2023-06-19T03:41:29;98309.09;;;21.36;58.17
20710;BME280;10516;51.518;9.864;2023-06-19T03:43:55;98315.75;;;21.38;58.48
20710;BME280;10516;51.518;9.864;2023-06-19T03:46:20;98324.69;;;21.39;58.58
20710;BME280;10516;51.518;9.864;2023-06-19T03:48:45;98334.44;;;21.40;58.83
20710;BME280;10516;51.518;9.864;2023-06-19T03:51:11;98333.47;;;21.44;59.03
20710;BME280;10516;51.518;9.864;2023-06-19T03:53:36;98327.75;;;21.37;59.05
20710;BME280;10516;51.518;9.864;2023-06-19T03:56:02;98325.69;;;21.34;59.28
20710;BME280;10516;51.518;9.864;2023-06-19T03:58:27;98328.75;;;21.33;59.75
20710;BME280;10516;51.518;9.864;2023-06-19T04:00:52;98330.00;;;21.35;59.78
20710;BME280;10516;51.518;9.864;2023-06-19T04:03:18;98331.81;;;21.31;60.03
20710;BME280;10516;51.518;9.864;2023-06-19T04:05:43;98332.09;;;21.30;60.35
20710;BME280;10516;51.518;9.864;2023-06-19T04:08:08;98325.28;;;21.24;60.34
20710;BME280;10516;51.518;9.864;2023-06-19T04:10:34;98328.47;;;21.26;60.38
20710;BME280;10516;51.518;9.864;2023-06-19T04:12:59;98324.50;;;21.23;59.85
20710;BME280;10516;51.518;9.864;2023-06-19T04:15:25;98324.94;;;21.25;60.16
20710;BME280;10516;51.518;9.864;2023-06-19T04:17:50;98329.91;;;21.23;60.53
20710;BME280;10516;51.518;9.864;2023-06-19T04:20:15;98325.75;;;21.26;61.03
20710;BME280;10516;51.518;9.864;2023-06-19T04:22:41;98324.66;;;21.27;60.50
20710;BME280;10516;51.518;9.864;2023-06-19T04:25:08;98327.81;;;21.29;60.95
20710;BME280;10516;51.518;9.864;2023-06-19T04:27:34;98315.56;;;21.23;61.56
20710;BME280;10516;51.518;9.864;2023-06-19T04:30:00;98326.09;;;21.24;61.26
20710;BME280;10516;51.518;9.864;2023-06-19T04:32:26;98325.47;;;21.19;61.43
20710;BME280;10516;51.518;9.864;2023-06-19T04:34:51;98326.06;;;21.04;61.83
20710;BME280;10516;51.518;9.864;2023-06-19T04:37:16;98334.03;;;21.09;61.71
20710;BME280;10516;51.518;9.864;2023-06-19T04:39:45;98341.97;;;21.14;61.67
20710;BME280;10516;51.518;9.864;2023-06-19T04:42:13;98335.09;;;21.16;61.51
20710;BME280;10516;51.518;9.864;2023-06-19T04:44:45;98334.75;;;21.18;61.42
20710;BME280;10516;51.518;9.864;2023-06-19T04:47:10;98344.22;;;21.12;62.18
20710;BME280;10516;51.518;9.864;2023-06-19T04:49:35;98326.69;;;21.09;62.00
20710;BME280;10516;51.518;9.864;2023-06-19T04:52:01;98331.78;;;21.11;61.95
20710;BME280;10516;51.518;9.864;2023-06-19T04:54:26;98338.00;;;21.11;62.07
20710;BME280;10516;51.518;9.864;2023-06-19T04:56:52;98336.69;;;21.17;61.98
20710;BME280;10516;51.518;9.864;2023-06-19T04:59:18;98334.31;;;21.16;61.83
20710;BME280;10516;51.518;9.864;2023-06-19T05:01:44;98338.94;;;21.15;61.91
20710;BME280;10516;51.518;9.864;2023-06-19T05:04:09;98342.97;;;21.30;61.73
20710;BME280;10516;51.518;9.864;2023-06-19T05:06:36;98337.22;;;21.31;61.50
20710;BME280;10516;51.518;9.864;2023-06-19T05:09:02;98344.22;;;21.32;61.67
20710;BME280;10516;51.518;9.864;2023-06-19T05:11:28;98344.97;;;21.41;61.46
20710;BME280;10516;51.518;9.864;2023-06-19T05:13:53;98356.97;;;21.40;61.28
20710;BME280;10516;51.518;9.864;2023-06-19T05:16:18;98357.75;;;21.41;60.73
20710;BME280;10516;51.518;9.864;2023-06-19T05:18:45;98340.72;;;21.32;61.14
20710;BME280;10516;51.518;9.864;2023-06-19T05:21:10;98349.53;;;21.29;61.32
20710;BME280;10516;51.518;9.864;2023-06-19T05:23:37;98350.19;;;21.26;61.15
20710;BME280;10516;51.518;9.864;2023-06-19T05:26:03;98350.88;;;21.23;61.00
20710;BME280;10516;51.518;9.864;2023-06-19T05:28:29;98346.72;;;21.17;61.13
20710;BME280;10516;51.518;9.864;2023-06-19T05:30:54;98368.44;;;21.17;61.54
20710;BME280;10516;51.518;9.864;2023-06-19T05:33:19;98352.97;;;21.17;61.12
20710;BME280;10516;51.518;9.864;2023-06-19T05:35:45;98371.63;;;21.19;61.18
20710;BME280;10516;51.518;9.864;2023-06-19T05:38:16;98371.31;;;21.20;61.34
20710;BME280;10516;51.518;9.864;2023-06-19T05:40:42;98375.53;;;21.30;60.94
20710;BME280;10516;51.518;9.864;2023-06-19T05:43:07;98377.31;;;21.05;60.98
20710;BME280;10516;51.518;9.864;2023-06-19T05:45:32;98390.16;;;21.17;61.01
20710;BME280;10516;51.518;9.864;2023-06-19T05:47:58;98395.16;;;21.06;61.07
20710;BME280;10516;51.518;9.864;2023-06-19T05:50:23;98394.53;;;21.01;60.92
20710;BME280;10516;51.518;9.864;2023-06-19T05:52:48;98394.06;;;21.07;60.60
20710;BME280;10516;51.518;9.864;2023-06-19T05:55:14;98411.13;;;20.99;61.28
20710;BME280;10516;51.518;9.864;2023-06-19T05:57:39;98410.38;;;20.99;61.30
20710;BME280;10516;51.518;9.864;2023-06-19T06:00:05;98413.72;;;21.04;60.71
20710;BME280;10516;51.518;9.864;2023-06-19T06:02:32;98428.41;;;21.03;61.10
20710;BME280;10516;51.518;9.864;2023-06-19T06:04:57;98412.84;;;21.12;60.08
20710;BME280;10516;51.518;9.864;2023-06-19T06:07:22;98421.28;;;21.19;60.31
20710;BME280;10516;51.518;9.864;2023-06-19T06:09:48;98424.94;;;21.23;60.06
20710;BME280;10516;51.518;9.864;2023-06-19T06:12:13;98429.78;;;21.38;59.51
20710;BME280;10516;51.518;9.864;2023-06-19T06:14:40;98420.25;;;21.32;59.75
20710;BME280;10516;51.518;9.864;2023-06-19T06:17:05;98434.91;;;21.40;59.78
20710;BME280;10516;51.518;9.864;2023-06-19T06:19:31;98435.19;;;21.47;59.83
20710;BME280;10516;51.518;9.864;2023-06-19T06:21:56;98423.47;;;21.55;59.19
20710;BME280;10516;51.518;9.864;2023-06-19T06:24:21;98430.47;;;21.56;59.78
20710;BME280;10516;51.518;9.864;2023-06-19T06:26:47;98430.41;;;21.64;59.06
20710;BME280;10516;51.518;9.864;2023-06-19T06:29:12;98438.84;;;21.72;58.92
20710;BME280;10516;51.518;9.864;2023-06-19T06:31:38;98430.63;;;21.80;58.91
20710;BME280;10516;51.518;9.864;2023-06-19T06:34:03;98425.38;;;21.84;59.20
20710;BME280;10516;51.518;9.864;2023-06-19T06:36:29;98425.75;;;21.94;58.88
20710;BME280;10516;51.518;9.864;2023-06-19T06:38:54;98435.09;;;22.05;58.30
20710;BME280;10516;51.518;9.864;2023-06-19T06:41:20;98425.50;;;22.08;58.51
20710;BME280;10516;51.518;9.864;2023-06-19T06:43:45;98440.47;;;22.14;58.05
20710;BME280;10516;51.518;9.864;2023-06-19T06:46:10;98436.09;;;22.01;60.53
20710;BME280;10516;51.518;9.864;2023-06-19T06:48:36;98430.59;;;22.09;58.43
20710;BME280;10516;51.518;9.864;2023-06-19T06:51:02;98425.59;;;22.11;58.64
20710;BME280;10516;51.518;9.864;2023-06-19T06:53:28;98434.75;;;22.27;57.70
20710;BME280;10516;51.518;9.864;2023-06-19T06:55:57;98433.28;;;22.30;58.20
20710;BME280;10516;51.518;9.864;2023-06-19T06:58:23;98436.56;;;22.35;57.99
20710;BME280;10516;51.518;9.864;2023-06-19T07:00:48;98423.41;;;22.25;58.62
20710;BME280;10516;51.518;9.864;2023-06-19T07:03:16;98449.44;;;22.47;58.67
20710;BME280;10516;51.518;9.864;2023-06-19T07:05:41;98434.66;;;22.36;57.31
20710;BME280;10516;51.518;9.864;2023-06-19T07:08:06;98435.75;;;22.23;58.99
20710;BME280;10516;51.518;9.864;2023-06-19T07:10:32;98440.56;;;22.50;57.51
20710;BME280;10516;51.518;9.864;2023-06-19T07:12:57;98435.34;;;22.78;57.16
20710;BME280;10516;51.518;9.864;2023-06-19T07:15:22;98443.03;;;22.64;58.34
20710;BME280;10516;51.518;9.864;2023-06-19T07:17:48;98447.56;;;22.72;57.87
20710;BME280;10516;51.518;9.864;2023-06-19T07:20:14;98441.91;;;22.77;57.44
20710;BME280;10516;51.518;9.864;2023-06-19T07:22:41;98439.69;;;22.91;57.05
20710;BME280;10516;51.518;9.864;2023-06-19T07:25:07;98444.19;;;22.87;56.98
20710;BME280;10516;51.518;9.864;2023-06-19T07:27:32;98438.28;;;22.73;59.58
20710;BME280;10516;51.518;9.864;2023-06-19T07:29:58;98433.19;;;22.83;60.92
20710;BME280;10516;51.518;9.864;2023-06-19T07:32:23;98434.91;;;22.88;58.90
20710;BME280;10516;51.518;9.864;2023-06-19T07:34:48;98433.22;;;22.95;58.41
20710;BME280;10516;51.518;9.864;2023-06-19T07:37:14;98441.84;;;23.09;57.19
20710;BME280;10516;51.518;9.864;2023-06-19T07:39:47;98435.38;;;23.02;57.31
20710;BME280;10516;51.518;9.864;2023-06-19T07:42:16;98441.50;;;23.11;57.10
20710;BME280;10516;51.518;9.864;2023-06-19T07:44:43;98444.34;;;23.27;58.18
20710;BME280;10516;51.518;9.864;2023-06-19T07:47:08;98436.03;;;23.11;58.11
20710;BME280;10516;51.518;9.864;2023-06-19T07:49:34;98452.84;;;23.25;57.66
20710;BME280;10516;51.518;9.864;2023-06-19T07:52:00;98452.63;;;23.18;58.85
20710;BME280;10516;51.518;9.864;2023-06-19T07:54:25;98452.28;;;23.44;57.08
20710;BME280;10516;51.518;9.864;2023-06-19T07:56:51;98439.34;;;23.53;56.48
20710;BME280;10516;51.518;9.864;2023-06-19T07:59:17;98444.25;;;23.47;58.50
20710;BME280;10516;51.518;9.864;2023-06-19T08:01:43;98433.44;;;23.27;60.04
20710;BME280;10516;51.518;9.864;2023-06-19T08:04:08;98441.88;;;23.46;58.39
20710;BME280;10516;51.518;9.864;2023-06-19T08:06:34;98439.00;;;23.66;56.62
20710;BME280;10516;51.518;9.864;2023-06-19T08:08:59;98447.38;;;23.73;56.54
20710;BME280;10516;51.518;9.864;2023-06-19T08:11:25;98442.13;;;24.05;55.54
20710;BME280;10516;51.518;9.864;2023-06-19T08:13:50;98448.34;;;24.05;59.17
20710;BME280;10516;51.518;9.864;2023-06-19T08:16:15;98445.03;;;24.00;56.41
20710;BME280;10516;51.518;9.864;2023-06-19T08:18:45;98442.56;;;23.95;59.00
20710;BME280;10516;51.518;9.864;2023-06-19T08:21:10;98453.81;;;23.81;58.45
20710;BME280;10516;51.518;9.864;2023-06-19T08:23:36;98443.66;;;24.18;57.83
20710;BME280;10516;51.518;9.864;2023-06-19T08:26:03;98431.41;;;24.00;59.96
20710;BME280;10516;51.518;9.864;2023-06-19T08:28:31;98442.91;;;23.93;58.22
20710;BME280;10516;51.518;9.864;2023-06-19T08:30:57;98442.78;;;23.90;58.83
20710;BME280;10516;51.518;9.864;2023-06-19T08:33:22;98442.59;;;24.22;58.88
20710;BME280;10516;51.518;9.864;2023-06-19T08:35:48;98444.56;;;24.10;58.57
20710;BME280;10516;51.518;9.864;2023-06-19T08:38:13;98449.13;;;24.06;58.18
20710;BME280;10516;51.518;9.864;2023-06-19T08:40:43;98450.38;;;24.08;58.89
20710;BME280;10516;51.518;9.864;2023-06-19T08:43:09;98450.00;;;24.65;56.17
20710;BME280;10516;51.518;9.864;2023-06-19T08:45:34;98451.75;;;25.01;57.26
20710;BME280;10516;51.518;9.864;2023-06-19T08:48:01;98459.69;;;24.63;55.86
20710;BME280;10516;51.518;9.864;2023-06-19T08:50:32;98449.19;;;24.77;56.03
20710;BME280;10516;51.518;9.864;2023-06-19T08:52:57;98450.03;;;25.12;55.08
20710;BME280;10516;51.518;9.864;2023-06-19T08:55:23;98454.88;;;25.34;54.61
20710;BME280;10516;51.518;9.864;2023-06-19T08:57:49;98445.56;;;25.35;54.26
20710;BME280;10516;51.518;9.864;2023-06-19T09:00:26;98451.44;;;25.37;55.96
20710;BME280;10516;51.518;9.864;2023-06-19T09:02:52;98447.22;;;25.55;54.16
20710;BME280;10516;51.518;9.864;2023-06-19T09:05:23;98446.03;;;25.72;52.88
20710;BME280;10516;51.518;9.864;2023-06-19T09:07:59;98449.72;;;25.79;52.65
20710;BME280;10516;51.518;9.864;2023-06-19T09:10:27;98449.06;;;25.86;54.48
20710;BME280;10516;51.518;9.864;2023-06-19T09:13:01;98451.25;;;25.96;52.36
20710;BME280;10516;51.518;9.864;2023-06-19T09:15:28;98450.00;;;25.93;52.70
20710;BME280;10516;51.518;9.864;2023-06-19T09:18:20;98458.53;;;26.08;53.08
20710;BME280;10516;51.518;9.864;2023-06-19T09:20:45;98449.19;;;26.09;52.17
20710;BME280;10516;51.518;9.864;2023-06-19T09:23:13;98459.16;;;26.01;52.60
20710;BME280;10516;51.518;9.864;2023-06-19T09:25:49;98445.19;;;26.06;53.00
20710;BME280;10516;51.518;9.864;2023-06-19T09:28:22;98447.88;;;26.22;51.85
20710;BME280;10516;51.518;9.864;2023-06-19T09:30:52;98446.25;;;26.36;51.94
20710;BME280;10516;51.518;9.864;2023-06-19T09:33:18;98445.50;;;26.39;51.92
20710;BME280;10516;51.518;9.864;2023-06-19T09:35:43;98463.06;;;26.57;51.47
20710;BME280;10516;51.518;9.864;2023-06-19T09:38:09;98447.06;;;26.59;51.34
20710;BME280;10516;51.518;9.864;2023-06-19T09:40:37;98458.56;;;26.68;51.39
20710;BME280;10516;51.518;9.864;2023-06-19T09:43:03;98445.78;;;26.53;53.09
20710;BME280;10516;51.518;9.864;2023-06-19T09:45:30;98453.56;;;26.32;51.93
20710;BME280;10516;51.518;9.864;2023-06-19T09:47:57;98448.94;;;26.55;51.88
20710;BME280;10516;51.518;9.864;2023-06-19T09:50:22;98456.53;;;26.43;52.08
20710;BME280;10516;51.518;9.864;2023-06-19T09:52:54;98459.94;;;27.01;51.16
20710;BME280;10516;51.518;9.864;2023-06-19T09:55:22;98452.28;;;27.10;51.11
20710;BME280;10516;51.518;9.864;2023-06-19T09:57:50;98447.34;;;27.19;51.44
20710;BME280;10516;51.518;9.864;2023-06-19T10:00:17;98451.41;;;27.28;51.10
20710;BME280;10516;51.518;9.864;2023-06-19T10:02:48;98458.91;;;27.31;52.84
20710;BME280;10516;51.518;9.864;2023-06-19T10:05:14;98453.94;;;27.14;51.38
20710;BME280;10516;51.518;9.864;2023-06-19T10:07:44;98456.84;;;27.48;52.36
20710;BME280;10516;51.518;9.864;2023-06-19T10:10:27;98442.22;;;27.66;50.06
20710;BME280;10516;51.518;9.864;2023-06-19T10:12:55;98455.06;;;27.88;51.53
20710;BME280;10516;51.518;9.864;2023-06-19T10:15:26;98446.09;;;27.91;49.61
20710;BME280;10516;51.518;9.864;2023-06-19T10:23:20;98459.41;;;28.52;48.42
20710;BME280;10516;51.518;9.864;2023-06-19T10:26:08;98463.69;;;28.50;49.91
20710;BME280;10516;51.518;9.864;2023-06-19T10:28:33;98457.50;;;28.56;48.32
20710;BME280;10516;51.518;9.864;2023-06-19T10:31:02;98450.75;;;28.50;48.50
20710;BME280;10516;51.518;9.864;2023-06-19T10:33:30;98451.59;;;28.54;49.07
20710;BME280;10516;51.518;9.864;2023-06-19T10:35:59;98439.81;;;28.54;48.70
20710;BME280;10516;51.518;9.864;2023-06-19T10:38:26;98442.16;;;28.55;48.39
20710;BME280;10516;51.518;9.864;2023-06-19T10:40:51;98455.13;;;28.55;48.67
20710;BME280;10516;51.518;9.864;2023-06-19T10:43:24;98458.13;;;28.43;48.65
20710;BME280;10516;51.518;9.864;2023-06-19T10:45:53;98451.28;;;28.26;50.28
20710;BME280;10516;51.518;9.864;2023-06-19T10:48:20;98445.41;;;28.31;48.45
20710;BME280;10516;51.518;9.864;2023-06-19T10:50:47;98452.81;;;28.24;49.43
20710;BME280;10516;51.518;9.864;2023-06-19T10:53:23;98440.94;;;28.53;49.23
20710;BME280;10516;51.518;9.864;2023-06-19T10:55:48;98440.38;;;28.03;48.52
20710;BME280;10516;51.518;9.864;2023-06-19T10:58:13;98439.19;;;28.34;49.29
20710;BME280;10516;51.518;9.864;2023-06-19T11:00:39;98435.91;;;28.95;49.09
20710;BME280;10516;51.518;9.864;2023-06-19T11:03:04;98432.44;;;29.02;47.87
20710;BME280;10516;51.518;9.864;2023-06-19T11:05:30;98445.84;;;29.10;47.44
20710;BME280;10516;51.518;9.864;2023-06-19T11:07:57;98431.75;;;28.68;47.78
20710;BME280;10516;51.518;9.864;2023-06-19T11:10:24;98434.59;;;28.42;47.82
20710;BME280;10516;51.518;9.864;2023-06-19T11:12:54;98445.06;;;28.33;48.68
20710;BME280;10516;51.518;9.864;2023-06-19T11:15:20;98442.22;;;28.99;48.76
20710;BME280;10516;51.518;9.864;2023-06-19T11:17:52;98431.53;;;29.34;48.86
20710;BME280;10516;51.518;9.864;2023-06-19T11:20:18;98444.56;;;29.44;50.39
20710;BME280;10516;51.518;9.864;2023-06-19T11:22:44;98430.19;;;29.65;47.15
20710;BME280;10516;51.518;9.864;2023-06-19T11:25:09;98436.72;;;30.11;46.65
20710;BME280;10516;51.518;9.864;2023-06-19T11:27:38;98429.25;;;30.08;48.25
20710;BME280;10516;51.518;9.864;2023-06-19T11:30:05;98431.66;;;30.24;45.95
20710;BME280;10516;51.518;9.864;2023-06-19T11:32:34;98427.31;;;30.16;45.96
20710;BME280;10516;51.518;9.864;2023-06-19T11:35:07;98442.38;;;30.43;47.33
20710;BME280;10516;51.518;9.864;2023-06-19T11:37:33;98437.53;;;30.19;46.91
20710;BME280;10516;51.518;9.864;2023-06-19T11:40:00;98432.03;;;30.15;46.36
20710;BME280;10516;51.518;9.864;2023-06-19T11:42:25;98443.34;;;29.96;46.59
20710;BME280;10516;51.518;9.864;2023-06-19T11:44:55;98442.91;;;29.87;46.63
20710;BME280;10516;51.518;9.864;2023-06-19T11:47:21;98450.78;;;29.85;47.24
20710;BME280;10516;51.518;9.864;2023-06-19T11:49:51;98442.03;;;29.73;47.35
20710;BME280;10516;51.518;9.864;2023-06-19T11:52:16;98444.03;;;29.76;47.10
20710;BME280;10516;51.518;9.864;2023-06-19T11:54:42;98444.16;;;29.42;48.55
20710;BME280;10516;51.518;9.864;2023-06-19T11:57:09;98450.53;;;29.50;47.94
20710;BME280;10516;51.518;9.864;2023-06-19T11:59:38;98445.13;;;29.67;47.78
20710;BME280;10516;51.518;9.864;2023-06-19T12:02:04;98450.72;;;29.82;49.65
20710;BME280;10516;51.518;9.864;2023-06-19T12:04:30;98437.09;;;30.06;47.41
20710;BME280;10516;51.518;9.864;2023-06-19T12:06:55;98436.69;;;30.08;46.68
20710;BME280;10516;51.518;9.864;2023-06-19T12:09:20;98429.59;;;30.00;46.83
20710;BME280;10516;51.518;9.864;2023-06-19T12:11:46;98438.25;;;30.02;46.88
20710;BME280;10516;51.518;9.864;2023-06-19T12:14:11;98430.25;;;29.76;49.25
20710;BME280;10516;51.518;9.864;2023-06-19T12:16:38;98426.56;;;29.57;47.54
20710;BME280;10516;51.518;9.864;2023-06-19T12:19:03;98433.47;;;29.30;48.13
20710;BME280;10516;51.518;9.864;2023-06-19T12:21:28;98433.63;;;29.04;48.29
20710;BME280;10516;51.518;9.864;2023-06-19T12:23:54;98431.31;;;29.06;48.58
20710;BME280;10516;51.518;9.864;2023-06-19T12:26:20;98436.72;;;28.96;49.19
20710;BME280;10516;51.518;9.864;2023-06-19T12:28:46;98430.50;;;29.06;48.69
20710;BME280;10516;51.518;9.864;2023-06-19T12:31:11;98431.22;;;28.99;48.25
20710;BME280;10516;51.518;9.864;2023-06-19T12:33:37;98428.88;;;29.01;48.88
20710;BME280;10516;51.518;9.864;2023-06-19T12:36:07;98430.50;;;29.06;48.48
20710;BME280;10516;51.518;9.864;2023-06-19T12:38:33;98428.53;;;29.03;48.15
20710;BME280;10516;51.518;9.864;2023-06-19T12:41:03;98428.38;;;28.85;48.41
20710;BME280;10516;51.518;9.864;2023-06-19T12:43:29;98437.44;;;28.52;50.98
20710;BME280;10516;51.518;9.864;2023-06-19T12:45:57;98440.91;;;28.82;50.54
20710;BME280;10516;51.518;9.864;2023-06-19T12:48:25;98432.22;;;29.17;51.01
20710;BME280;10516;51.518;9.864;2023-06-19T12:50:50;98429.59;;;29.38;49.02
20710;BME280;10516;51.518;9.864;2023-06-19T12:53:15;98439.03;;;29.37;49.30
20710;BME280;10516;51.518;9.864;2023-06-19T12:55:41;98451.47;;;29.21;49.60
20710;BME280;10516;51.518;9.864;2023-06-19T12:58:06;98464.19;;;29.39;50.68
20710;BME280;10516;51.518;9.864;2023-06-19T13:00:32;98449.44;;;29.61;49.24
20710;BME280;10516;51.518;9.864;2023-06-19T13:02:57;98450.41;;;29.97;50.13
20710;BME280;10516;51.518;9.864;2023-06-19T13:05:23;98452.53;;;30.25;49.04